Time;durP1;ratioP1;P1;durP2;ratioP2;P2;SDS_P1;SDS_P2;PMS_P1;PMS_P2;Temp;Humidity;BMP_temperature;BMP_pressure;BME280_temperature;BME280_humidity;BME280_pressure;Samples;Min_cycle;Max_cycle;Signal;HPM_P1;HPM_P2
2021/01/25 00:01:45;;;;;;;50.47;25.43;;;;;;;;;;5059638;28;20195;-70
2021/01/25 00:04:10;;;;;;;49.67;25.73;;;;;;;;;;5061914;28;20641;-70
2021/01/25 00:06:35;;;;;;;48.67;25.77;;;;;;;;;;5055427;28;20315;-70
2021/01/25 00:09:01;;;;;;;47.07;24.83;;;;;;;;;;5060819;28;20637;-70
2021/01/25 00:11:26;;;;;;;44.87;25.30;;;;;;;;;;5062952;28;20215;-70
2021/01/25 00:13:51;;;;;;;54.67;25.27;;;;;;;;;;5060270;28;20234;-70
2021/01/25 00:16:17;;;;;;;52.57;26.23;;;;;;;;;;5062834;28;20209;-70
2021/01/25 00:18:42;;;;;;;48.10;24.90;;;;;;;;;;5051578;28;20193;-70
2021/01/25 00:21:07;;;;;;;51.57;25.13;;;;;;;;;;5060931;28;20188;-70
2021/01/25 00:23:33;;;;;;;47.60;25.77;;;;;;;;;;5046627;28;20228;-70
2021/01/25 00:25:58;;;;;;;49.30;25.40;;;;;;;;;;5053376;28;20287;-70
2021/01/25 00:28:23;;;;;;;45.03;25.60;;;;;;;;;;5052843;28;20246;-70
2021/01/25 00:30:49;;;;;;;44.83;24.97;;;;;;;;;;5070254;28;20629;-70
2021/01/25 00:33:14;;;;;;;48.40;24.90;;;;;;;;;;5051312;28;20312;-69
2021/01/25 00:35:39;;;;;;;48.87;25.30;;;;;;;;;;5058463;28;20264;-69
2021/01/25 00:38:05;;;;;;;49.80;26.43;;;;;;;;;;5050463;28;20193;-69
2021/01/25 00:40:30;;;;;;;51.30;25.43;;;;;;;;;;5064254;28;20644;-69
2021/01/25 00:42:56;;;;;;;46.70;26.40;;;;;;;;;;5053388;28;20212;-69
2021/01/25 00:45:21;;;;;;;48.57;26.37;;;;;;;;;;5059959;28;20246;-69
2021/01/25 00:47:46;;;;;;;47.50;26.70;;;;;;;;;;5051998;28;20194;-69
2021/01/25 00:50:12;;;;;;;49.07;25.97;;;;;;;;;;5039988;28;20614;-69
2021/01/25 00:52:37;;;;;;;54.17;27.00;;;;;;;;;;5048288;28;20538;-69
2021/01/25 00:55:04;;;;;;;48.80;26.83;;;;;;;;;;5041855;28;20220;-69
2021/01/25 00:57:29;;;;;;;56.87;27.97;;;;;;;;;;5047519;28;20313;-70
2021/01/25 00:59:54;;;;;;;57.03;29.23;;;;;;;;;;5037110;28;20273;-70
2021/01/25 01:02:20;;;;;;;48.13;26.23;;;;;;;;;;5044094;28;20510;-70
2021/01/25 01:04:45;;;;;;;53.80;27.40;;;;;;;;;;5038193;28;20196;-70
2021/01/25 01:07:10;;;;;;;47.50;26.37;;;;;;;;;;5043766;28;20544;-70
2021/01/25 01:09:36;;;;;;;50.97;25.73;;;;;;;;;;5048422;28;20262;-70
2021/01/25 01:12:01;;;;;;;53.63;26.70;;;;;;;;;;5043167;28;20186;-70
2021/01/25 01:14:27;;;;;;;58.27;28.53;;;;;;;;;;5044165;28;20200;-70
2021/01/25 01:16:52;;;;;;;58.33;29.93;;;;;;;;;;5033847;28;20626;-70
2021/01/25 01:19:17;;;;;;;59.63;29.53;;;;;;;;;;5044312;28;20529;-69
2021/01/25 01:21:43;;;;;;;57.20;29.13;;;;;;;;;;5037151;28;20201;-69
2021/01/25 01:24:08;;;;;;;56.83;28.17;;;;;;;;;;5043595;28;20189;-69
2021/01/25 01:26:34;;;;;;;55.53;29.10;;;;;;;;;;5036869;28;20186;-69
2021/01/25 01:28:59;;;;;;;53.47;28.40;;;;;;;;;;5053438;28;20569;-69
2021/01/25 01:31:24;;;;;;;59.17;29.57;;;;;;;;;;5032972;28;20661;-69
2021/01/25 01:33:50;;;;;;;55.33;29.00;;;;;;;;;;5046475;28;20201;-69
2021/01/25 01:36:15;;;;;;;60.40;28.30;;;;;;;;;;5038230;28;20229;-69
2021/01/25 01:38:41;;;;;;;53.87;27.33;;;;;;;;;;5046517;28;20196;-69
2021/01/25 01:41:07;;;;;;;55.70;29.70;;;;;;;;;;5037353;28;25800;-69
2021/01/25 01:43:32;;;;;;;61.33;29.40;;;;;;;;;;5050107;28;20235;-69
2021/01/25 01:45:58;;;;;;;53.47;28.57;;;;;;;;;;5048383;28;20568;-69
2021/01/25 01:48:23;;;;;;;58.20;28.47;;;;;;;;;;5040787;28;20596;-69
2021/01/25 01:50:49;;;;;;;57.43;29.30;;;;;;;;;;5043297;28;20190;-69
2021/01/25 01:53:15;;;;;;;57.57;28.13;;;;;;;;;;5039716;28;20189;-69
2021/01/25 01:55:42;;;;;;;64.83;30.03;;;;;;;;;;5047717;28;20213;-69
2021/01/25 01:58:08;;;;;;;54.47;28.40;;;;;;;;;;5041621;28;20247;-69
2021/01/25 02:00:34;;;;;;;57.90;30.30;;;;;;;;;;5045353;28;20193;-69
2021/01/25 02:02:59;;;;;;;58.07;30.00;;;;;;;;;;5033133;28;20641;-69
2021/01/25 02:05:24;;;;;;;56.77;29.53;;;;;;;;;;5047411;28;20292;-69
2021/01/25 02:07:51;;;;;;;62.83;30.23;;;;;;;;;;5039872;28;20671;-69
2021/01/25 02:10:19;;;;;;;63.17;29.80;;;;;;;;;;5043364;28;20189;-69
2021/01/25 02:12:47;;;;;;;62.97;30.93;;;;;;;;;;5039317;28;20197;-69
2021/01/25 02:15:13;;;;;;;71.17;30.63;;;;;;;;;;5048882;28;20182;-69
2021/01/25 02:17:38;;;;;;;57.90;28.93;;;;;;;;;;5042376;28;20188;-69
2021/01/25 02:20:07;;;;;;;62.97;30.80;;;;;;;;;;5038099;28;20206;-68
2021/01/25 02:22:35;;;;;;;54.97;29.07;;;;;;;;;;5040817;28;20193;-68
2021/01/25 02:25:23;;;;;;;56.67;29.80;;;;;;;;;;5036069;28;20186;-68
2021/01/25 02:27:50;;;;;;;65.90;29.53;;;;;;;;;;5046498;28;20192;-68
2021/01/25 02:30:16;;;;;;;63.70;31.43;;;;;;;;;;5038220;28;20190;-68
2021/01/25 02:32:42;;;;;;;65.90;30.80;;;;;;;;;;5043718;28;20181;-68
2021/01/25 02:35:10;;;;;;;64.00;32.43;;;;;;;;;;5039061;28;20212;-68
2021/01/25 02:37:38;;;;;;;76.23;32.97;;;;;;;;;;5045216;28;20196;-68
2021/01/25 02:40:04;;;;;;;72.00;34.03;;;;;;;;;;5038569;28;20185;-68
2021/01/25 02:42:31;;;;;;;72.50;32.80;;;;;;;;;;5046860;28;20185;-68
2021/01/25 02:44:58;;;;;;;65.20;32.00;;;;;;;;;;5036642;28;20268;-68
2021/01/25 02:47:25;;;;;;;63.87;33.23;;;;;;;;;;5046691;28;20236;-68
2021/01/25 02:49:50;;;;;;;63.83;31.67;;;;;;;;;;5041050;28;20181;-68
2021/01/25 02:52:15;;;;;;;70.40;34.70;;;;;;;;;;5043891;28;20658;-68
2021/01/25 02:54:42;;;;;;;66.17;33.67;;;;;;;;;;5037522;28;20223;-68
2021/01/25 02:57:08;;;;;;;74.37;34.53;;;;;;;;;;5043691;28;20374;-68
2021/01/25 02:59:36;;;;;;;67.10;35.10;;;;;;;;;;5047182;28;20558;-68
2021/01/25 03:02:02;;;;;;;70.30;34.00;;;;;;;;;;5034729;28;20272;-68
2021/01/25 03:04:29;;;;;;;71.83;35.73;;;;;;;;;;5045723;28;20186;-68
2021/01/25 03:06:56;;;;;;;74.33;34.77;;;;;;;;;;5036460;28;20201;-68
2021/01/25 03:09:22;;;;;;;73.53;36.03;;;;;;;;;;5047889;28;20593;-68
2021/01/25 03:11:47;;;;;;;74.07;35.63;;;;;;;;;;5036721;28;20193;-68
2021/01/25 03:14:12;;;;;;;72.10;35.00;;;;;;;;;;5038169;28;20194;-68
2021/01/25 03:16:38;;;;;;;67.40;34.80;;;;;;;;;;5037222;28;20205;-68
2021/01/25 03:19:04;;;;;;;72.30;34.47;;;;;;;;;;5045935;28;20251;-68
2021/01/25 03:21:30;;;;;;;64.80;34.60;;;;;;;;;;5035947;28;20239;-68
2021/01/25 03:23:55;;;;;;;67.67;36.00;;;;;;;;;;5041911;28;20182;-68
2021/01/25 03:26:21;;;;;;;73.40;36.47;;;;;;;;;;5037980;28;20645;-68
2021/01/25 03:28:46;;;;;;;81.10;37.60;;;;;;;;;;5041674;28;20274;-68
2021/01/25 03:31:11;;;;;;;76.43;36.53;;;;;;;;;;5046778;28;20250;-68
2021/01/25 03:33:37;;;;;;;71.87;37.30;;;;;;;;;;5034804;28;20211;-68
2021/01/25 03:36:03;;;;;;;71.10;35.03;;;;;;;;;;5045828;28;20225;-68
2021/01/25 03:38:28;;;;;;;74.47;36.60;;;;;;;;;;5033598;28;20182;-68
2021/01/25 03:40:54;;;;;;;82.03;37.97;;;;;;;;;;5043666;28;20182;-68
2021/01/25 03:43:19;;;;;;;71.23;34.77;;;;;;;;;;5036129;28;20201;-67
2021/01/25 03:45:44;;;;;;;71.97;35.20;;;;;;;;;;5044807;28;20538;-68
2021/01/25 03:48:09;;;;;;;72.37;37.07;;;;;;;;;;5039269;28;20557;-68
2021/01/25 03:50:35;;;;;;;74.47;38.23;;;;;;;;;;5042157;28;20208;-68
2021/01/25 03:53:01;;;;;;;80.80;38.37;;;;;;;;;;5039615;28;20538;-68
2021/01/25 03:55:26;;;;;;;74.00;38.00;;;;;;;;;;5044413;28;20656;-67
2021/01/25 03:57:52;;;;;;;69.80;36.70;;;;;;;;;;5038049;28;20199;-67
2021/01/25 04:00:20;;;;;;;78.07;37.77;;;;;;;;;;5045146;28;20189;-68
2021/01/25 04:02:45;;;;;;;73.37;37.00;;;;;;;;;;5036686;28;20195;-67
2021/01/25 04:05:10;;;;;;;76.97;38.10;;;;;;;;;;5050788;28;20205;-67
2021/01/25 04:07:36;;;;;;;79.87;38.37;;;;;;;;;;5044675;28;20178;-67
2021/01/25 04:10:05;;;;;;;76.37;37.53;;;;;;;;;;5033224;28;20216;-67
2021/01/25 04:12:31;;;;;;;79.73;38.10;;;;;;;;;;5045095;28;20193;-67
2021/01/25 04:14:56;;;;;;;74.37;37.53;;;;;;;;;;5034327;28;20646;-68
2021/01/25 04:17:23;;;;;;;75.23;37.40;;;;;;;;;;5046534;28;20730;-68
2021/01/25 04:19:49;;;;;;;70.63;37.37;;;;;;;;;;5036358;28;20588;-68
2021/01/25 04:22:14;;;;;;;71.40;37.43;;;;;;;;;;5047490;28;20189;-68
2021/01/25 04:24:39;;;;;;;75.43;38.00;;;;;;;;;;5038046;28;20184;-68
2021/01/25 04:27:05;;;;;;;77.97;36.67;;;;;;;;;;5047545;28;20607;-68
2021/01/25 04:29:30;;;;;;;75.97;38.47;;;;;;;;;;5039475;28;20186;-68
2021/01/25 04:31:55;;;;;;;75.97;36.90;;;;;;;;;;5049667;28;20622;-68
2021/01/25 04:34:21;;;;;;;69.43;37.07;;;;;;;;;;5047876;28;20235;-68
2021/01/25 04:36:46;;;;;;;76.20;37.83;;;;;;;;;;5037514;28;20293;-68
2021/01/25 04:39:11;;;;;;;74.23;37.20;;;;;;;;;;5049777;28;20177;-68
2021/01/25 04:41:37;;;;;;;78.07;37.90;;;;;;;;;;5038614;28;20186;-68
2021/01/25 04:44:02;;;;;;;76.77;38.10;;;;;;;;;;5051381;28;20654;-68
2021/01/25 04:46:30;;;;;;;82.73;40.67;;;;;;;;;;5041481;28;20545;-68
2021/01/25 04:48:55;;;;;;;77.87;38.90;;;;;;;;;;5048049;28;20268;-68
2021/01/25 04:51:23;;;;;;;79.67;38.87;;;;;;;;;;5033202;28;20304;-68
2021/01/25 04:53:49;;;;;;;72.73;37.63;;;;;;;;;;5047755;28;20193;-68
2021/01/25 04:56:15;;;;;;;82.30;38.50;;;;;;;;;;5040201;28;20205;-68
2021/01/25 04:58:41;;;;;;;78.97;38.20;;;;;;;;;;5032499;28;20238;-68
2021/01/25 05:01:06;;;;;;;76.90;39.47;;;;;;;;;;5041318;28;20204;-68
2021/01/25 05:03:31;;;;;;;82.80;40.50;;;;;;;;;;5055630;28;20664;-67
2021/01/25 05:05:57;;;;;;;75.03;37.37;;;;;;;;;;5045435;28;20243;-67
2021/01/25 05:08:22;;;;;;;82.57;37.90;;;;;;;;;;5045335;28;20195;-67
2021/01/25 05:10:48;;;;;;;76.17;37.80;;;;;;;;;;5047169;28;20185;-67
2021/01/25 05:13:21;;;;;;;75.63;36.50;;;;;;;;;;5040999;28;20208;-67
2021/01/25 05:15:49;;;;;;;83.13;38.23;;;;;;;;;;5049858;28;20608;-67
2021/01/25 05:18:20;;;;;;;74.53;36.93;;;;;;;;;;5037089;28;20262;-67
2021/01/25 05:20:48;;;;;;;75.20;36.27;;;;;;;;;;5042691;28;20276;-67
2021/01/25 05:23:15;;;;;;;81.90;38.00;;;;;;;;;;5040931;28;20189;-67
2021/01/25 05:25:41;;;;;;;84.57;38.77;;;;;;;;;;5049939;28;20602;-67
2021/01/25 05:28:13;;;;;;;85.27;38.37;;;;;;;;;;5036533;28;20531;-67
2021/01/25 05:30:39;;;;;;;79.13;37.53;;;;;;;;;;5046544;28;20677;-67
2021/01/25 05:33:04;;;;;;;75.60;36.93;;;;;;;;;;5033421;28;20190;-67
2021/01/25 05:35:31;;;;;;;79.00;37.43;;;;;;;;;;5045899;28;20229;-67
2021/01/25 05:38:05;;;;;;;89.57;39.90;;;;;;;;;;5039889;28;20220;-67
2021/01/25 05:40:33;;;;;;;84.30;40.30;;;;;;;;;;5046342;28;20191;-67
2021/01/25 05:42:59;;;;;;;72.93;37.10;;;;;;;;;;5044421;28;20188;-67
2021/01/25 05:45:28;;;;;;;79.87;37.83;;;;;;;;;;5045508;28;20276;-67
2021/01/25 05:47:56;;;;;;;74.37;36.83;;;;;;;;;;5050427;28;20196;-67
2021/01/25 05:50:26;;;;;;;80.50;37.10;;;;;;;;;;5039256;28;20239;-67
2021/01/25 05:52:53;;;;;;;82.67;38.47;;;;;;;;;;5047145;28;20189;-67
2021/01/25 05:55:19;;;;;;;87.40;39.20;;;;;;;;;;4341309;28;10000725;-67
2021/01/25 05:57:44;;;;;;;82.67;37.60;;;;;;;;;;5036351;28;20193;-67
2021/01/25 06:00:10;;;;;;;81.80;38.90;;;;;;;;;;5036312;28;20204;-67
2021/01/25 06:02:38;;;;;;;81.63;37.47;;;;;;;;;;5044294;28;20185;-67
2021/01/25 06:05:07;;;;;;;82.33;38.43;;;;;;;;;;5034844;28;20642;-67
2021/01/25 06:07:33;;;;;;;82.40;36.93;;;;;;;;;;5047710;28;20189;-67
2021/01/25 06:10:02;;;;;;;86.73;37.93;;;;;;;;;;5033308;28;20727;-67
2021/01/25 06:12:44;;;;;;;90.50;38.27;;;;;;;;;;5042814;28;20540;-68
2021/01/25 06:15:17;;;;;;;86.40;37.70;;;;;;;;;;5036363;28;20748;-68
2021/01/25 06:17:44;;;;;;;89.07;39.13;;;;;;;;;;5044328;28;20189;-68
2021/01/25 06:20:10;;;;;;;88.50;39.20;;;;;;;;;;5031965;28;20247;-68
2021/01/25 06:22:37;;;;;;;93.33;40.90;;;;;;;;;;5042554;28;20583;-68
2021/01/25 06:25:03;;;;;;;88.77;40.17;;;;;;;;;;5035154;28;20189;-68
2021/01/25 06:27:30;;;;;;;91.97;38.97;;;;;;;;;;5044826;28;20625;-68
2021/01/25 06:30:00;;;;;;;95.00;40.30;;;;;;;;;;5041694;28;20646;-68
2021/01/25 06:32:33;;;;;;;84.57;37.53;;;;;;;;;;5033599;28;20185;-68
2021/01/25 06:35:06;;;;;;;85.97;39.27;;;;;;;;;;5043454;28;20663;-68
2021/01/25 06:37:34;;;;;;;93.43;40.30;;;;;;;;;;5035658;28;20236;-68
2021/01/25 06:40:11;;;;;;;85.20;39.03;;;;;;;;;;5043634;28;20186;-69
2021/01/25 06:42:42;;;;;;;96.30;39.60;;;;;;;;;;5031543;28;20197;-68
2021/01/25 06:45:08;;;;;;;87.83;39.13;;;;;;;;;;5039849;28;20204;-68
2021/01/25 06:47:35;;;;;;;99.87;40.80;;;;;;;;;;5033421;28;20193;-68
2021/01/25 06:50:03;;;;;;;90.40;39.80;;;;;;;;;;5044031;28;20270;-68
2021/01/25 06:52:31;;;;;;;94.47;39.70;;;;;;;;;;5035074;28;20225;-70
2021/01/25 06:55:06;;;;;;;91.13;39.03;;;;;;;;;;5040906;28;20243;-68
2021/01/25 06:57:36;;;;;;;102.60;41.73;;;;;;;;;;5033173;28;20215;-68
2021/01/25 07:00:19;;;;;;;98.57;41.70;;;;;;;;;;5042536;28;20525;-68
2021/01/25 07:02:57;;;;;;;94.27;41.20;;;;;;;;;;5030621;28;20670;-68
2021/01/25 07:05:31;;;;;;;94.87;41.97;;;;;;;;;;5040001;28;20259;-68
2021/01/25 07:08:22;;;;;;;93.40;40.43;;;;;;;;;;5035760;28;20215;-68
2021/01/25 07:11:03;;;;;;;92.43;41.43;;;;;;;;;;5042417;28;20269;-68
2021/01/25 07:13:31;;;;;;;89.53;41.03;;;;;;;;;;5041930;28;20203;-69
2021/01/25 07:15:57;;;;;;;103.27;42.37;;;;;;;;;;5046956;28;20209;-68
2021/01/25 07:18:25;;;;;;;103.90;42.07;;;;;;;;;;5037820;28;20185;-68
2021/01/25 07:20:53;;;;;;;110.90;41.87;;;;;;;;;;5045423;28;20185;-68
2021/01/25 07:23:20;;;;;;;97.37;41.73;;;;;;;;;;4684470;28;9999589;-69
2021/01/25 07:25:53;;;;;;;95.27;40.77;;;;;;;;;;5040651;28;20191;-69
2021/01/25 07:28:18;;;;;;;103.90;40.47;;;;;;;;;;5030452;28;20747;-69
2021/01/25 07:30:44;;;;;;;89.37;38.23;;;;;;;;;;5041427;28;20193;-69
2021/01/25 07:33:10;;;;;;;94.27;39.60;;;;;;;;;;5044474;28;20204;-69
2021/01/25 07:35:35;;;;;;;85.67;39.43;;;;;;;;;;5030767;28;20548;-69
2021/01/25 07:38:00;;;;;;;93.83;39.73;;;;;;;;;;5038271;28;20563;-69
2021/01/25 07:40:26;;;;;;;98.07;41.40;;;;;;;;;;5034125;28;20201;-69
2021/01/25 07:42:53;;;;;;;87.97;38.70;;;;;;;;;;5037074;28;20199;-69
2021/01/25 07:45:21;;;;;;;96.83;38.63;;;;;;;;;;5042324;28;20197;-69
2021/01/25 07:47:47;;;;;;;92.73;39.47;;;;;;;;;;5041252;28;20197;-69
2021/01/25 07:50:13;;;;;;;92.33;40.07;;;;;;;;;;5033016;28;20485;-69
2021/01/25 07:52:39;;;;;;;98.43;40.23;;;;;;;;;;5045128;28;20246;-69
2021/01/25 07:55:14;;;;;;;100.00;39.67;;;;;;;;;;5031375;28;20197;-69
2021/01/25 07:57:44;;;;;;;81.70;38.23;;;;;;;;;;5042210;28;20254;-69
2021/01/25 08:00:19;;;;;;;87.80;39.97;;;;;;;;;;5038822;28;20193;-69
2021/01/25 08:02:54;;;;;;;95.13;39.37;;;;;;;;;;5048352;28;20291;-69
2021/01/25 08:05:21;;;;;;;99.30;41.20;;;;;;;;;;5038544;28;24165;-69
2021/01/25 08:07:48;;;;;;;90.03;38.90;;;;;;;;;;5048936;28;20181;-69
2021/01/25 08:10:14;;;;;;;98.80;39.83;;;;;;;;;;5049893;28;20201;-69
2021/01/25 08:12:43;;;;;;;88.17;39.27;;;;;;;;;;5039513;28;20189;-69
2021/01/25 08:15:11;;;;;;;86.03;40.00;;;;;;;;;;5047283;28;20332;-69
2021/01/25 08:17:42;;;;;;;90.80;41.87;;;;;;;;;;5036394;28;20210;-69
2021/01/25 08:20:20;;;;;;;103.57;41.73;;;;;;;;;;5048661;28;20192;-69
2021/01/25 08:23:11;;;;;;;104.97;42.73;;;;;;;;;;5039011;28;20276;-69
2021/01/25 08:25:37;;;;;;;92.20;40.43;;;;;;;;;;4695784;28;9999574;-69
2021/01/25 08:28:07;;;;;;;92.07;42.77;;;;;;;;;;5032332;28;20190;-69
2021/01/25 08:30:42;;;;;;;96.67;41.97;;;;;;;;;;5043731;28;20189;-69
2021/01/25 08:33:10;;;;;;;101.13;43.23;;;;;;;;;;5034316;28;20205;-69
2021/01/25 08:35:39;;;;;;;102.67;43.90;;;;;;;;;;5045599;28;20275;-69
2021/01/25 08:38:06;;;;;;;94.67;42.07;;;;;;;;;;5033352;28;20204;-69
2021/01/25 08:40:35;;;;;;;103.47;45.03;;;;;;;;;;5045648;28;20174;-69
2021/01/25 08:43:01;;;;;;;113.67;46.20;;;;;;;;;;5032809;28;21373;-69
2021/01/25 08:45:30;;;;;;;115.33;50.70;;;;;;;;;;5044996;28;20216;-69
2021/01/25 08:48:31;;;;;;;115.73;51.27;;;;;;;;;;5032876;28;20722;-69
2021/01/25 08:51:08;;;;;;;113.87;45.20;;;;;;;;;;5042957;28;20762;-69
2021/01/25 08:53:33;;;;;;;111.07;47.37;;;;;;;;;;5033702;28;20193;-69
2021/01/25 08:55:58;;;;;;;120.37;50.00;;;;;;;;;;5044263;28;20220;-69
2021/01/25 08:58:27;;;;;;;124.90;53.73;;;;;;;;;;5033773;28;20578;-70
2021/01/25 09:00:53;;;;;;;122.20;52.67;;;;;;;;;;5046388;28;20778;-70
2021/01/25 09:03:19;;;;;;;135.57;58.10;;;;;;;;;;5034077;28;20335;-70
2021/01/25 09:05:46;;;;;;;147.67;61.67;;;;;;;;;;5045163;28;20306;-70
2021/01/25 09:08:11;;;;;;;146.27;63.63;;;;;;;;;;5041562;28;20731;-70
2021/01/25 09:10:37;;;;;;;141.90;63.47;;;;;;;;;;5032104;28;20187;-69
2021/01/25 09:13:03;;;;;;;136.07;62.33;;;;;;;;;;5040700;28;20277;-69
2021/01/25 09:15:29;;;;;;;148.93;66.73;;;;;;;;;;5032042;28;20188;-69
2021/01/25 09:17:58;;;;;;;152.20;69.43;;;;;;;;;;5038514;28;20193;-69
2021/01/25 09:20:24;;;;;;;156.40;70.97;;;;;;;;;;5034028;28;20193;-68
2021/01/25 09:22:50;;;;;;;166.70;74.50;;;;;;;;;;5044034;28;20200;-68
2021/01/25 09:25:18;;;;;;;167.17;75.80;;;;;;;;;;5031401;28;20224;-68
2021/01/25 09:27:43;;;;;;;170.53;77.03;;;;;;;;;;5040968;28;20544;-68
2021/01/25 09:30:11;;;;;;;170.07;78.37;;;;;;;;;;5041829;28;20189;-69
2021/01/25 09:32:37;;;;;;;168.77;76.60;;;;;;;;;;5042707;28;20251;-69
2021/01/25 09:35:03;;;;;;;158.80;74.70;;;;;;;;;;5033633;28;20193;-69
2021/01/25 09:37:29;;;;;;;151.93;71.70;;;;;;;;;;5044891;28;20657;-69
2021/01/25 09:39:54;;;;;;;152.73;72.50;;;;;;;;;;5044719;28;20192;-69
2021/01/25 09:42:19;;;;;;;143.33;72.27;;;;;;;;;;5041938;28;20189;-69
2021/01/25 09:44:44;;;;;;;135.47;68.30;;;;;;;;;;5045256;28;20181;-69
2021/01/25 09:47:10;;;;;;;133.20;68.73;;;;;;;;;;5040066;28;20189;-69
2021/01/25 09:49:35;;;;;;;128.20;65.80;;;;;;;;;;5045267;28;20186;-69
2021/01/25 09:52:01;;;;;;;134.20;68.27;;;;;;;;;;5036372;28;20189;-69
2021/01/25 09:54:26;;;;;;;134.53;64.93;;;;;;;;;;5051407;28;20185;-69
2021/01/25 09:56:51;;;;;;;118.90;61.73;;;;;;;;;;5039238;28;20227;-69
2021/01/25 09:59:17;;;;;;;125.27;61.77;;;;;;;;;;5047068;28;20578;-69
2021/01/25 10:01:43;;;;;;;119.27;60.90;;;;;;;;;;5037738;28;20271;-69
2021/01/25 10:04:09;;;;;;;116.03;58.57;;;;;;;;;;5046521;28;20209;-69
2021/01/25 10:06:35;;;;;;;113.33;59.33;;;;;;;;;;5035869;28;20204;-69
2021/01/25 10:09:00;;;;;;;115.53;60.27;;;;;;;;;;5048809;28;20181;-69
2021/01/25 10:11:26;;;;;;;107.07;56.93;;;;;;;;;;5044584;28;20591;-69
2021/01/25 10:13:52;;;;;;;111.40;58.33;;;;;;;;;;5037069;28;20174;-69
2021/01/25 10:16:19;;;;;;;112.43;56.47;;;;;;;;;;5040131;28;20224;-70
2021/01/25 10:18:45;;;;;;;105.20;54.27;;;;;;;;;;5029772;28;20228;-70
2021/01/25 10:21:10;;;;;;;94.80;50.07;;;;;;;;;;5034128;28;20226;-70
2021/01/25 10:23:36;;;;;;;85.67;46.83;;;;;;;;;;5031539;28;20207;-70
2021/01/25 10:26:02;;;;;;;85.27;47.90;;;;;;;;;;5034672;28;20220;-69
2021/01/25 10:28:27;;;;;;;81.50;45.00;;;;;;;;;;5032160;28;20189;-68
2021/01/25 10:30:52;;;;;;;81.57;44.40;;;;;;;;;;5037024;28;20567;-70
2021/01/25 10:33:18;;;;;;;71.83;40.33;;;;;;;;;;5036361;28;20181;-70
2021/01/25 10:35:43;;;;;;;69.17;39.07;;;;;;;;;;5047499;28;20884;-70
2021/01/25 10:38:09;;;;;;;68.00;38.43;;;;;;;;;;5033006;28;20189;-70
2021/01/25 10:40:35;;;;;;;64.23;38.07;;;;;;;;;;5045297;28;20193;-70
2021/01/25 10:43:00;;;;;;;69.77;37.80;;;;;;;;;;5041047;28;20173;-70
2021/01/25 10:45:25;;;;;;;60.93;37.57;;;;;;;;;;5037814;28;20185;-71
2021/01/25 10:47:51;;;;;;;64.17;37.40;;;;;;;;;;5045121;28;20191;-71
2021/01/25 10:50:17;;;;;;;59.50;34.83;;;;;;;;;;5039302;28;20192;-71
2021/01/25 10:52:43;;;;;;;63.27;33.17;;;;;;;;;;5040666;28;20177;-70
2021/01/25 10:55:10;;;;;;;57.53;33.00;;;;;;;;;;5036241;28;20239;-70
2021/01/25 10:57:35;;;;;;;56.30;32.63;;;;;;;;;;5044719;28;20247;-71
2021/01/25 11:00:16;;;;;;;57.30;31.80;;;;;;;;;;5037391;28;20635;-71
2021/01/25 11:02:41;;;;;;;55.77;31.97;;;;;;;;;;5045027;28;20234;-71
2021/01/25 11:05:08;;;;;;;51.27;30.33;;;;;;;;;;5039123;28;20204;-69
2021/01/25 11:07:35;;;;;;;45.37;27.83;;;;;;;;;;5049108;28;20176;-71
2021/01/25 11:10:01;;;;;;;51.87;29.60;;;;;;;;;;5041233;28;20284;-72
2021/01/25 11:12:26;;;;;;;55.10;28.53;;;;;;;;;;5046279;28;20264;-71
2021/01/25 11:14:51;;;;;;;49.70;29.03;;;;;;;;;;5042899;28;20269;-71
2021/01/25 11:17:18;;;;;;;51.70;29.73;;;;;;;;;;4341150;28;10000746;-70
2021/01/25 11:19:43;;;;;;;46.07;28.27;;;;;;;;;;5041819;28;20193;-71
2021/01/25 11:22:08;;;;;;;53.83;29.70;;;;;;;;;;5030590;28;20672;-71
2021/01/25 11:24:34;;;;;;;48.50;28.37;;;;;;;;;;5039675;28;20193;-70
2021/01/25 11:27:03;;;;;;;44.03;26.77;;;;;;;;;;5028374;28;20190;-71
2021/01/25 11:29:30;;;;;;;48.23;27.07;;;;;;;;;;5039752;28;20185;-70
2021/01/25 11:32:02;;;;;;;42.30;24.80;;;;;;;;;;5029693;28;20217;-71
2021/01/25 11:34:29;;;;;;;48.43;26.47;;;;;;;;;;5040819;28;20737;-71
2021/01/25 11:36:55;;;;;;;41.17;24.23;;;;;;;;;;5032841;28;20699;-71
2021/01/25 11:39:21;;;;;;;40.37;24.77;;;;;;;;;;5041114;28;20196;-71
2021/01/25 11:41:46;;;;;;;45.27;27.27;;;;;;;;;;5032392;28;20197;-70
2021/01/25 11:44:12;;;;;;;44.13;26.70;;;;;;;;;;5043470;28;20667;-71
2021/01/25 11:46:37;;;;;;;41.47;25.47;;;;;;;;;;5040692;28;20695;-71
2021/01/25 11:49:03;;;;;;;38.17;22.07;;;;;;;;;;5037060;28;20294;-71
2021/01/25 11:51:28;;;;;;;35.90;21.23;;;;;;;;;;5043479;28;20235;-71
2021/01/25 11:53:53;;;;;;;38.17;22.33;;;;;;;;;;5029724;28;20508;-71
2021/01/25 11:56:19;;;;;;;38.83;22.03;;;;;;;;;;5036307;28;20205;-71
2021/01/25 11:58:44;;;;;;;36.50;21.20;;;;;;;;;;5032836;28;20279;-71
2021/01/25 12:01:09;;;;;;;36.80;20.90;;;;;;;;;;5042695;28;20243;-71
2021/01/25 12:03:35;;;;;;;38.87;22.33;;;;;;;;;;5033762;28;20208;-71
2021/01/25 12:06:00;;;;;;;34.57;20.33;;;;;;;;;;5044615;28;20193;-69
2021/01/25 12:08:26;;;;;;;40.90;21.83;;;;;;;;;;5036217;28;20196;-72
2021/01/25 12:10:51;;;;;;;42.47;22.93;;;;;;;;;;5041837;28;20177;-71
2021/01/25 12:13:17;;;;;;;35.87;20.27;;;;;;;;;;5037153;28;20190;-69
2021/01/25 12:15:43;;;;;;;42.53;20.90;;;;;;;;;;5042071;28;20170;-69
2021/01/25 12:18:08;;;;;;;34.87;20.27;;;;;;;;;;5036223;28;20187;-69
2021/01/25 12:20:34;;;;;;;36.40;21.53;;;;;;;;;;5044243;28;20185;-69
2021/01/25 12:22:59;;;;;;;37.20;21.87;;;;;;;;;;5061645;28;20209;-70
2021/01/25 12:25:24;;;;;;;36.70;21.07;;;;;;;;;;5033312;28;20194;-70
2021/01/25 12:27:51;;;;;;;34.00;20.63;;;;;;;;;;5034068;28;20550;-70
2021/01/25 12:30:17;;;;;;;33.83;20.00;;;;;;;;;;5036625;28;20556;-70
2021/01/25 12:32:43;;;;;;;35.47;21.13;;;;;;;;;;5043947;28;20688;-70
2021/01/25 12:35:10;;;;;;;37.03;21.83;;;;;;;;;;5041030;28;20374;-70
2021/01/25 12:37:37;;;;;;;34.17;20.90;;;;;;;;;;5049502;28;20296;-70
2021/01/25 12:40:04;;;;;;;37.07;21.33;;;;;;;;;;5040724;28;20186;-70
2021/01/25 12:42:29;;;;;;;38.90;20.93;;;;;;;;;;5034323;28;20190;-70
2021/01/25 12:44:54;;;;;;;39.37;20.47;;;;;;;;;;5022691;28;20219;-70
2021/01/25 12:47:20;;;;;;;35.80;20.70;;;;;;;;;;5033909;28;20775;-70
2021/01/25 12:49:45;;;;;;;35.27;21.03;;;;;;;;;;5028925;28;20255;-70
2021/01/25 12:52:10;;;;;;;32.63;19.67;;;;;;;;;;5036033;28;20250;-70
2021/01/25 12:54:36;;;;;;;33.27;19.40;;;;;;;;;;5037816;28;20177;-70
2021/01/25 12:57:01;;;;;;;31.23;18.70;;;;;;;;;;5027675;28;21209;-69
2021/01/25 12:59:26;;;;;;;31.70;17.90;;;;;;;;;;5035421;28;20189;-69
2021/01/25 13:01:52;;;;;;;33.33;17.10;;;;;;;;;;5028108;28;20213;-69
2021/01/25 13:04:17;;;;;;;31.47;16.13;;;;;;;;;;5034939;28;21667;-69
2021/01/25 13:06:42;;;;;;;28.27;15.27;;;;;;;;;;5023234;28;20200;-69
2021/01/25 13:09:08;;;;;;;36.13;19.13;;;;;;;;;;5033399;28;20193;-69
2021/01/25 13:11:33;;;;;;;29.90;16.97;;;;;;;;;;5030246;28;20541;-69
2021/01/25 13:13:59;;;;;;;27.23;16.80;;;;;;;;;;5038788;28;20255;-69
2021/01/25 13:16:27;;;;;;;29.67;16.60;;;;;;;;;;5038188;28;20213;-69
2021/01/25 13:18:52;;;;;;;29.40;17.33;;;;;;;;;;5046536;28;20181;-69
2021/01/25 13:21:19;;;;;;;25.93;15.87;;;;;;;;;;5045946;28;20200;-69
2021/01/25 13:23:45;;;;;;;23.27;14.60;;;;;;;;;;5043391;28;20177;-69
2021/01/25 13:26:10;;;;;;;26.90;14.53;;;;;;;;;;5047209;28;20592;-69
2021/01/25 13:28:35;;;;;;;26.00;14.93;;;;;;;;;;5041060;28;20265;-69
2021/01/25 13:31:01;;;;;;;24.23;14.53;;;;;;;;;;5051554;28;20257;-69
2021/01/25 13:33:26;;;;;;;27.50;15.07;;;;;;;;;;5038891;28;20707;-69
2021/01/25 13:35:51;;;;;;;27.70;15.70;;;;;;;;;;5050081;28;20232;-69
2021/01/25 13:38:17;;;;;;;25.70;14.10;;;;;;;;;;5043405;28;20720;-69
2021/01/25 13:40:42;;;;;;;23.27;13.53;;;;;;;;;;5044603;28;20198;-69
2021/01/25 13:43:07;;;;;;;25.03;14.90;;;;;;;;;;4338667;28;10000867;-70
2021/01/25 13:45:33;;;;;;;24.70;15.20;;;;;;;;;;5039628;28;20268;-69
2021/01/25 13:48:00;;;;;;;26.13;15.57;;;;;;;;;;5047494;28;20698;-70
2021/01/25 13:50:26;;;;;;;27.50;15.97;;;;;;;;;;5045272;28;20664;-69
2021/01/25 13:52:52;;;;;;;26.27;14.97;;;;;;;;;;5052548;28;20268;-69
2021/01/25 13:55:17;;;;;;;23.63;14.07;;;;;;;;;;5041231;28;20575;-69
2021/01/25 13:57:42;;;;;;;24.73;14.63;;;;;;;;;;5047867;28;20205;-69
2021/01/25 14:00:11;;;;;;;23.50;14.10;;;;;;;;;;5037124;28;20196;-70
2021/01/25 14:02:36;;;;;;;25.10;14.37;;;;;;;;;;5054079;28;20188;-70
2021/01/25 14:05:02;;;;;;;22.50;13.23;;;;;;;;;;5037051;28;20672;-70
2021/01/25 14:07:27;;;;;;;19.63;11.03;;;;;;;;;;5049602;28;20608;-70
2021/01/25 14:09:53;;;;;;;17.93;10.70;;;;;;;;;;5035701;28;20185;-70
2021/01/25 14:12:18;;;;;;;22.83;13.00;;;;;;;;;;5048522;28;20555;-70